Ransom Canyon, Texas
Current Conditions -  °F | °C
As of 8:53 PM on Monday 20 Oct 2014 (Local Time) from KLBB Reporting Station
Clear Clear  
Wind Chill: 18°   Ceiling: Unl
Heat Index: 18°   Visibility: 10mi
Dew Point: 12°   Wind: 8mph
Humidity: 67%   Direction: 160°SSE
Pressure: 30.09"   Gusts: NA
Location:  33.53°N, 101.68°W
Report Text: KLBB 210153Z 16007KT 10SM CLR 18/12 A3009 RMK AO2 SLP161 T01780117
Loading
Personal Weather Stations






























Interactive Weather Map
Tropical Storm Tracking
New forecast layout! Learn more

10-Day Weather Forecast

Advertisements
Track Severe Weather on mobile